createdAt,value
2017-12-13T15:44:31.817Z,7.87
2017-12-13T15:46:59.262Z,5.57
2017-12-13T15:49:26.707Z,5.60
2017-12-13T15:51:54.920Z,5.73
2017-12-13T15:54:22.344Z,6.20
2017-12-13T15:56:50.556Z,6.40
2017-12-13T15:59:18.004Z,6.50
2017-12-13T16:01:45.465Z,5.67
2017-12-13T16:04:13.660Z,6.10
2017-12-13T16:06:41.119Z,6.50
2017-12-13T16:09:08.573Z,6.20
2017-12-13T16:11:36.800Z,6.20
2017-12-13T16:14:04.263Z,6.03
2017-12-13T16:16:31.719Z,6.30
2017-12-13T16:18:59.177Z,6.23
2017-12-13T16:21:26.639Z,6.17
2017-12-13T16:23:54.091Z,6.03
2017-12-13T16:26:21.541Z,6.40
2017-12-13T16:28:49.008Z,6.67
2017-12-13T16:31:16.453Z,7.30
2017-12-13T16:33:43.904Z,6.47
2017-12-13T16:36:12.127Z,6.93
2017-12-13T16:38:39.580Z,7.50
2017-12-13T16:41:07.020Z,6.67
2017-12-13T16:43:35.261Z,6.50
2017-12-13T16:46:02.844Z,6.93
2017-12-13T16:48:30.292Z,6.87
2017-12-13T16:50:57.743Z,6.77
2017-12-13T16:53:26.216Z,7.50
2017-12-13T16:55:53.696Z,8.53
2017-12-13T16:58:21.157Z,6.83
2017-12-13T17:00:48.617Z,8.27
2017-12-13T17:03:16.069Z,7.67
2017-12-13T17:05:43.552Z,7.63
2017-12-13T17:08:10.994Z,6.90
2017-12-13T17:10:38.479Z,7.93
2017-12-13T17:13:05.930Z,7.60
2017-12-13T17:15:33.383Z,7.77
2017-12-13T17:18:00.833Z,6.60
2017-12-13T17:20:28.278Z,6.70
2017-12-13T17:22:55.722Z,8.17
2017-12-13T17:25:23.939Z,7.17
2017-12-13T17:27:51.403Z,7.33
2017-12-13T17:30:18.846Z,7.60
2017-12-13T17:32:46.318Z,7.57
2017-12-13T17:35:13.756Z,7.80
2017-12-13T17:37:41.960Z,7.70
2017-12-13T17:40:09.428Z,7.93
2017-12-13T17:42:36.887Z,7.47
2017-12-13T17:45:04.398Z,7.53
2017-12-13T17:47:31.851Z,8.40
2017-12-13T17:49:59.307Z,7.83
2017-12-13T17:52:26.747Z,9.00
2017-12-13T17:54:54.211Z,9.03
2017-12-13T17:57:21.668Z,10.73
2017-12-13T17:59:49.130Z,12.07
2017-12-13T18:02:16.601Z,11.83
2017-12-13T18:04:44.055Z,10.97
2017-12-13T18:07:11.513Z,10.80
2017-12-13T18:09:38.972Z,11.30
2017-12-13T18:12:06.430Z,10.30
2017-12-13T18:14:33.916Z,10.00
2017-12-13T18:17:01.374Z,10.80
2017-12-13T18:19:28.890Z,11.40
2017-12-13T18:21:56.303Z,11.30
2017-12-13T18:24:23.749Z,10.20
2017-12-13T18:26:51.227Z,10.37
2017-12-13T18:29:18.666Z,9.87
2017-12-13T18:31:46.121Z,10.13
2017-12-13T18:34:13.561Z,11.40
2017-12-13T18:36:41.787Z,9.83
2017-12-13T18:39:09.247Z,10.10
2017-12-13T18:41:36.703Z,9.60
2017-12-13T18:44:04.166Z,7.80
2017-12-13T18:46:31.596Z,8.30
2017-12-13T18:48:59.803Z,8.47
2017-12-13T18:51:27.376Z,7.77
2017-12-13T18:53:54.811Z,7.50
2017-12-13T18:56:23.010Z,7.40
2017-12-13T18:58:51.237Z,7.43
2017-12-13T19:01:18.670Z,6.60
2017-12-13T19:03:46.115Z,7.07
2017-12-13T19:06:13.568Z,6.23
2017-12-13T19:08:41.011Z,7.07
2017-12-13T19:11:09.239Z,4.60
2017-12-13T19:13:36.701Z,3.00
2017-12-13T19:16:04.152Z,2.00
2017-12-13T19:18:31.588Z,1.50
2017-12-13T19:20:59.796Z,1.67
2017-12-13T19:23:28.027Z,2.17
2017-12-13T19:25:55.494Z,2.63
2017-12-13T19:28:23.718Z,2.30
2017-12-13T19:30:51.172Z,2.83
2017-12-13T19:33:18.623Z,2.60
2017-12-13T19:35:46.111Z,3.00
2017-12-13T19:38:13.562Z,3.17
2017-12-13T19:40:41.026Z,2.60
2017-12-13T19:43:08.488Z,2.37
2017-12-13T19:45:35.948Z,2.47
2017-12-13T19:48:03.713Z,2.07
2017-12-13T19:50:31.193Z,2.60
2017-12-13T19:52:58.648Z,2.33
2017-12-13T19:55:26.108Z,2.80
2017-12-13T19:57:53.547Z,2.23
2017-12-13T20:00:21.781Z,2.00
2017-12-13T20:02:49.230Z,2.33
2017-12-13T20:05:16.700Z,2.67
2017-12-13T20:07:44.164Z,2.77
2017-12-13T20:10:11.650Z,2.73
2017-12-13T20:12:39.108Z,3.00
2017-12-13T20:15:16.333Z,3.10
2017-12-13T20:17:43.794Z,3.17
2017-12-13T20:20:11.251Z,2.93
2017-12-13T20:22:38.718Z,2.73
2017-12-13T20:25:06.936Z,3.17
2017-12-13T20:27:34.472Z,2.90
2017-12-13T20:30:01.935Z,2.97
2017-12-13T20:32:29.383Z,3.27
2017-12-13T20:34:57.619Z,3.37
2017-12-13T20:37:25.063Z,2.90
2017-12-13T20:39:52.526Z,2.90
2017-12-13T20:42:19.974Z,2.80
2017-12-13T20:44:47.432Z,2.50
2017-12-13T20:47:14.903Z,3.40
2017-12-13T20:49:42.670Z,4.00
2017-12-13T20:52:10.094Z,3.23
2017-12-13T20:54:38.339Z,2.80
2017-12-13T20:57:05.814Z,2.87
2017-12-13T20:59:33.308Z,3.13
2017-12-13T21:02:01.533Z,3.10
2017-12-13T21:04:28.989Z,3.20
2017-12-13T21:06:56.443Z,2.97
2017-12-13T21:09:23.917Z,3.27
2017-12-13T21:11:51.390Z,3.13
2017-12-13T21:14:18.846Z,2.97
2017-12-13T21:16:46.295Z,3.30
2017-12-13T21:19:13.750Z,3.37
2017-12-13T21:21:41.216Z,3.13
2017-12-13T21:24:08.676Z,3.80
2017-12-13T21:26:36.113Z,3.30
2017-12-13T21:29:04.339Z,3.30
2017-12-13T21:31:31.823Z,3.13
2017-12-13T21:33:59.276Z,2.63
2017-12-13T21:36:26.733Z,3.33
2017-12-13T21:38:54.365Z,3.97
2017-12-13T21:41:21.819Z,2.87
2017-12-13T21:46:24.190Z,3.00
2017-12-13T21:48:52.092Z,2.80
2017-12-13T21:51:20.604Z,3.13
2017-12-13T21:53:48.022Z,2.70
2017-12-13T21:56:16.236Z,2.97
2017-12-13T21:58:43.687Z,3.20
2017-12-13T22:01:11.141Z,2.73
2017-12-13T22:03:39.367Z,2.70
2017-12-13T22:06:06.808Z,2.97
2017-12-13T22:08:34.252Z,2.80
2017-12-13T22:11:02.455Z,3.10
2017-12-13T22:13:29.915Z,3.10
2017-12-13T22:15:57.359Z,2.93
2017-12-13T22:18:24.837Z,3.23
2017-12-13T22:20:52.296Z,2.87
2017-12-13T22:23:19.745Z,2.60
2017-12-13T22:25:47.976Z,3.43
2017-12-13T22:28:15.423Z,3.13
2017-12-13T22:30:42.884Z,2.50
2017-12-13T22:33:10.370Z,2.97
2017-12-13T22:35:37.826Z,2.97
2017-12-13T22:38:05.270Z,3.47
2017-12-13T22:40:32.719Z,2.93
2017-12-13T22:43:00.149Z,3.00
2017-12-13T22:45:28.365Z,2.50
2017-12-13T22:47:55.838Z,3.40
2017-12-13T22:50:23.286Z,2.90
2017-12-13T22:52:51.146Z,2.60
2017-12-13T22:55:18.580Z,2.57
2017-12-13T22:57:46.034Z,2.80
2017-12-13T23:00:13.480Z,2.47
2017-12-13T23:02:40.934Z,3.03
2017-12-13T23:05:08.404Z,2.90
2017-12-13T23:07:35.846Z,2.93
2017-12-13T23:10:03.291Z,2.70
2017-12-13T23:12:30.796Z,2.97
2017-12-13T23:14:58.202Z,2.90
2017-12-13T23:17:26.408Z,2.73
2017-12-13T23:19:53.870Z,2.37
2017-12-13T23:22:21.294Z,2.50
2017-12-13T23:24:49.523Z,2.60
2017-12-13T23:27:16.967Z,2.70
2017-12-13T23:29:45.906Z,2.13
2017-12-13T23:32:13.367Z,2.73
2017-12-13T23:34:40.821Z,2.73
2017-12-13T23:37:09.039Z,2.63
2017-12-13T23:39:37.255Z,2.63
2017-12-13T23:42:04.711Z,2.27
2017-12-13T23:44:32.147Z,2.50
2017-12-13T23:47:00.372Z,3.50
2017-12-13T23:49:27.833Z,2.27
2017-12-13T23:51:55.281Z,2.47
2017-12-13T23:54:22.726Z,2.10
2017-12-13T23:56:51.177Z,2.43
2017-12-13T23:59:18.613Z,2.70
